Time;durP1;ratioP1;P1;durP2;ratioP2;P2;SDS_P1;SDS_P2;PMS_P1;PMS_P2;Temp;Humidity;BMP_temperature;BMP_pressure;BME280_temperature;BME280_humidity;BME280_pressure;Samples;Min_cycle;Max_cycle;Signal;HPM_P1;HPM_P2
2021/06/08 00:01:05;;;;;;;5.00;4.28;;;;;;;21.45;60.64;99280.25;3427428;28;20038;-71
2021/06/08 00:02:45;;;;;;;6.28;4.38;;;;;;;21.49;60.32;99281.31;3439190;28;20046;-70
2021/06/08 00:04:26;;;;;;;5.23;4.70;;;;;;;21.48;60.04;99278.91;3419678;28;20441;-70
2021/06/08 00:06:07;;;;;;;8.13;5.57;;;;;;;21.47;59.72;99282.69;3440776;28;20049;-68
2021/06/08 00:07:48;;;;;;;13.13;5.87;;;;;;;21.44;59.44;99280.53;3441492;28;20058;-70
2021/06/08 00:09:29;;;;;;;5.93;5.00;;;;;;;21.39;59.81;99277.81;3429943;28;20429;-70
2021/06/08 00:11:10;;;;;;;5.43;4.10;;;;;;;21.35;59.59;99272.94;3430363;28;20050;-69
2021/06/08 00:12:51;;;;;;;5.80;4.10;;;;;;;21.38;60.17;99276.19;3431897;28;20043;-74
2021/06/08 00:14:32;;;;;;;7.67;4.33;;;;;;;21.43;60.50;99278.91;3443249;28;20042;-73
2021/06/08 00:16:13;;;;;;;11.43;4.70;;;;;;;21.52;60.62;99279.94;3443589;28;20068;-75
2021/06/08 00:17:57;;;;;;;8.37;4.57;;;;;;;21.58;60.83;99278.84;3414901;29;20510;-74
2021/06/08 00:19:39;;;;;;;5.95;3.90;;;;;;;21.64;60.67;99272.31;3431506;28;20057;-74
2021/06/08 00:21:19;;;;;;;8.70;4.50;;;;;;;21.69;60.55;99263.34;3453943;28;20124;-74
2021/06/08 00:23:00;;;;;;;6.57;4.47;;;;;;;21.73;60.44;99267.91;3452577;28;20045;-74
2021/06/08 00:24:41;;;;;;;6.20;4.30;;;;;;;21.77;60.05;99260.84;3441930;28;20100;-74
2021/06/08 00:26:22;;;;;;;7.43;4.07;;;;;;;21.80;59.98;99261.41;3431136;28;20058;-74
2021/06/08 00:28:04;;;;;;;7.32;4.30;;;;;;;21.85;60.21;99272.22;3415821;29;20040;-74
2021/06/08 00:29:44;;;;;;;7.78;4.30;;;;;;;21.84;59.95;99266.00;3417825;28;20047;-74
2021/06/08 00:31:26;;;;;;;7.93;4.43;;;;;;;21.86;59.88;99266.50;3436983;28;20053;-74
2021/06/08 00:33:23;;;;;;;6.85;3.67;;;;;;;21.87;59.76;99264.63;3441699;28;20141;-74
2021/06/08 00:35:05;;;;;;;5.03;4.03;;;;;;;21.87;59.52;99261.91;3436018;28;20039;-73
2021/06/08 00:36:45;;;;;;;6.43;4.68;;;;;;;21.88;59.73;99263.53;3430056;28;20046;-73
2021/06/08 00:38:26;;;;;;;5.97;4.07;;;;;;;21.90;59.38;99269.50;3429880;28;20038;-73
2021/06/08 00:40:07;;;;;;;5.57;4.73;;;;;;;21.89;59.30;99271.41;3429713;28;20043;-73
2021/06/08 00:41:48;;;;;;;6.15;4.38;;;;;;;21.90;59.04;99269.50;3417329;28;20149;-73
2021/06/08 00:43:30;;;;;;;5.30;3.93;;;;;;;21.91;59.53;99271.09;3426821;28;20101;-73
2021/06/08 00:45:11;;;;;;;3.85;3.55;;;;;;;21.91;59.51;99282.75;3430874;28;20046;-73
2021/06/08 00:46:52;;;;;;;4.70;4.00;;;;;;;21.89;59.25;99271.41;3423329;28;20058;-73
2021/06/08 00:48:33;;;;;;;6.82;3.90;;;;;;;21.92;59.48;99278.16;3440010;28;20529;-73
2021/06/08 00:50:14;;;;;;;8.47;4.47;;;;;;;21.92;59.19;99286.31;3435837;28;20062;-73
2021/06/08 00:51:55;;;;;;;5.22;4.72;;;;;;;21.92;59.21;99280.88;3419904;28;20068;-72
2021/06/08 00:53:36;;;;;;;5.83;4.33;;;;;;;21.92;59.45;99286.31;3439164;28;20054;-72
2021/06/08 00:55:18;;;;;;;4.40;3.80;;;;;;;21.91;59.42;99285.47;3436585;28;20057;-72
2021/06/08 00:56:59;;;;;;;8.27;4.68;;;;;;;21.91;59.46;99287.38;3442978;28;20042;-74
2021/06/08 00:58:40;;;;;;;4.57;3.47;;;;;;;21.91;59.64;99279.25;3436544;28;20453;-72
2021/06/08 01:00:21;;;;;;;7.50;4.50;;;;;;;21.87;59.50;99276.28;3436213;28;20289;-73
2021/06/08 01:02:02;;;;;;;6.50;4.20;;;;;;;21.90;59.50;99283.06;3440675;28;20050;-73
2021/06/08 01:03:43;;;;;;;5.70;4.63;;;;;;;21.90;59.30;99280.34;3443147;28;20050;-73
2021/06/08 01:05:25;;;;;;;4.47;4.07;;;;;;;21.92;59.23;99283.59;3442210;28;20513;-73
2021/06/08 01:07:06;;;;;;;4.03;3.63;;;;;;;21.91;59.42;99285.47;3428696;28;20052;-73
2021/06/08 01:08:47;;;;;;;5.23;4.50;;;;;;;21.90;59.14;99285.75;3439536;28;20102;-73
2021/06/08 01:10:28;;;;;;;5.27;3.87;;;;;;;21.91;59.26;99287.38;3437458;28;20037;-73
2021/06/08 01:12:16;;;;;;;4.75;3.47;;;;;;;21.93;59.13;99287.91;3422111;28;20279;-74
2021/06/08 01:13:59;;;;;;;5.43;3.90;;;;;;;21.92;59.26;99289.03;3427285;28;20112;-74
2021/06/08 01:15:40;;;;;;;5.18;3.47;;;;;;;21.91;58.93;99279.25;3442572;28;20672;-73
2021/06/08 01:17:21;;;;;;;6.10;3.90;;;;;;;21.91;58.94;99292.81;3442888;28;20350;-74
2021/06/08 01:19:02;;;;;;;4.80;4.33;;;;;;;21.92;59.19;99297.16;3442061;28;20049;-73
2021/06/08 01:20:43;;;;;;;6.57;3.67;;;;;;;21.92;58.83;99299.88;3422206;28;20582;-74
2021/06/08 01:22:25;;;;;;;7.47;4.53;;;;;;;21.91;59.13;99293.59;3418922;28;20047;-73
2021/06/08 01:24:09;;;;;;;4.22;3.72;;;;;;;21.92;58.98;99297.16;3428831;28;20473;-73
2021/06/08 01:25:50;;;;;;;4.25;3.85;;;;;;;21.92;59.19;99297.16;3415365;28;20035;-74
2021/06/08 01:27:31;;;;;;;7.03;4.40;;;;;;;21.92;58.98;99289.03;3436621;28;20532;-74
2021/06/08 01:29:12;;;;;;;3.83;3.50;;;;;;;21.91;58.90;99299.03;3428153;28;20047;-74
2021/06/08 01:30:54;;;;;;;7.10;4.80;;;;;;;21.90;58.82;99292.00;3425721;28;20054;-74
2021/06/08 01:32:39;;;;;;;5.10;4.18;;;;;;;21.91;58.52;99295.53;3434395;28;20050;-74
2021/06/08 01:34:20;;;;;;;5.10;4.22;;;;;;;21.89;58.75;99294.97;3421381;28;20145;-74
2021/06/08 01:36:00;;;;;;;4.57;4.17;;;;;;;21.90;58.90;99293.91;3411649;29;20046;-73
2021/06/08 01:37:44;;;;;;;8.55;4.65;;;;;;;21.89;58.55;99289.56;3412396;29;20083;-73
2021/06/08 01:39:25;;;;;;;4.25;3.75;;;;;;;21.87;58.89;99287.13;3434339;28;20778;-74
2021/06/08 01:41:07;;;;;;;4.13;3.70;;;;;;;21.87;58.83;99286.34;3430279;28;20042;-74
2021/06/08 01:42:49;;;;;;;8.77;4.53;;;;;;;21.90;58.81;99293.91;3414498;29;20035;-74
2021/06/08 01:44:30;;;;;;;4.57;3.97;;;;;;;21.90;59.01;99285.75;3430138;28;20045;-74
2021/06/08 01:46:11;;;;;;;4.27;3.87;;;;;;;21.89;58.84;99292.25;3427980;28;20507;-73
2021/06/08 01:47:51;;;;;;;6.90;4.03;;;;;;;21.89;58.55;99289.56;3439688;28;20320;-73
2021/06/08 01:49:32;;;;;;;6.27;4.13;;;;;;;21.89;58.75;99293.09;3440862;28;20297;-73
2021/06/08 01:51:59;;;;;;;6.47;4.37;;;;;;;21.92;58.57;99297.16;3442287;28;20053;-74
2021/06/08 01:53:51;;;;;;;4.80;3.28;;;;;;;21.89;58.71;99293.09;3371892;29;20044;-74
2021/06/08 01:55:36;;;;;;;4.88;4.32;;;;;;;21.84;58.92;99284.97;3421087;28;20061;-74
2021/06/08 01:57:41;;;;;;;6.95;3.88;;;;;;;21.90;58.90;99285.75;3412535;29;20197;-74
2021/06/08 01:59:29;;;;;;;4.38;3.60;;;;;;;21.90;58.74;99288.47;3419804;28;20078;-75
2021/06/08 02:01:21;;;;;;;4.50;4.10;;;;;;;21.89;58.59;99284.13;3414121;28;20063;-74
2021/06/08 02:03:20;;;;;;;6.05;3.90;;;;;;;21.90;58.60;99280.34;3428483;28;20129;-74
2021/06/08 02:05:17;;;;;;;5.47;4.75;;;;;;;21.90;58.40;99285.75;3428998;28;20046;-75
2021/06/08 02:07:09;;;;;;;6.05;4.03;;;;;;;21.90;58.40;99283.84;3430173;28;20045;-75
2021/06/08 02:09:10;;;;;;;7.57;3.88;;;;;;;21.93;58.54;99279.78;3440841;28;20062;-75
2021/06/08 02:10:54;;;;;;;6.30;3.90;;;;;;;21.92;58.42;99278.16;3428642;28;20065;-74
2021/06/08 02:12:35;;;;;;;5.57;3.75;;;;;;;21.91;58.58;99273.81;3441706;28;20050;-72
2021/06/08 02:14:36;;;;;;;5.00;4.13;;;;;;;21.92;58.42;99265.41;3427170;28;20097;-72
2021/06/08 02:16:21;;;;;;;4.88;2.90;;;;;;;21.91;58.14;99276.53;3425138;28;20039;-72
2021/06/08 02:18:03;;;;;;;5.10;3.63;;;;;;;21.89;58.16;99278.69;3437563;28;20045;-72
2021/06/08 02:19:48;;;;;;;4.25;3.78;;;;;;;21.89;58.54;99270.56;3427655;28;20623;-72
2021/06/08 02:21:33;;;;;;;5.15;3.42;;;;;;;21.91;58.49;99266.47;3424824;28;20049;-73
2021/06/08 02:23:19;;;;;;;5.90;3.70;;;;;;;21.91;58.41;99271.91;3438805;28;20089;-73
2021/06/08 02:25:00;;;;;;;4.18;3.65;;;;;;;21.91;58.55;99266.47;3433768;28;20414;-73
2021/06/08 02:26:41;;;;;;;;;;;;;;;21.93;58.64;99269.72;3414915;28;20046;-73
2021/06/08 02:28:26;;;;;;;8.63;3.40;;;;;;;21.90;58.68;99270.28;3411655;28;19915;-73
2021/06/08 02:30:08;;;;;;;5.20;3.00;;;;;;;21.90;58.51;99269.50;3426361;28;20031;-75
2021/06/08 02:31:49;;;;;;;8.60;4.07;;;;;;;21.89;58.63;99267.84;3414342;28;20098;-74
2021/06/08 02:33:30;;;;;;;3.97;3.65;;;;;;;21.90;58.10;99266.78;3434908;28;20050;-74
2021/06/08 02:35:12;;;;;;;9.85;3.50;;;;;;;21.90;58.18;99270.28;3428294;28;20193;-74
2021/06/08 02:37:10;;;;;;;4.22;3.53;;;;;;;21.92;58.29;99270.03;3420323;28;20057;-72
2021/06/08 02:38:53;;;;;;;5.60;3.50;;;;;;;21.91;58.16;99265.66;3441492;28;20042;-73
2021/06/08 02:40:34;;;;;;;4.53;3.58;;;;;;;21.92;57.81;99261.88;3421402;28;20039;-73
2021/06/08 02:42:17;;;;;;;5.87;3.77;;;;;;;21.94;57.91;99260.50;3425427;28;20506;-73
2021/06/08 02:43:58;;;;;;;11.63;7.32;;;;;;;21.95;57.86;99261.31;3429307;28;20533;-73
2021/06/08 02:45:39;;;;;;;10.20;6.27;;;;;;;22.00;57.90;99269.44;3429045;28;20161;-73
2021/06/08 02:47:20;;;;;;;17.80;10.80;;;;;;;22.00;57.93;99269.44;3414046;29;20059;-75
2021/06/08 02:49:02;;;;;;;22.30;16.13;;;;;;;22.02;57.92;99278.13;3411771;28;20533;-72
2021/06/08 02:50:45;;;;;;;26.33;18.95;;;;;;;22.00;57.77;99278.38;3425515;28;20380;-73
2021/06/08 02:52:28;;;;;;;34.55;22.30;;;;;;;22.05;57.92;99277.53;3413889;29;20082;-73
2021/06/08 02:54:08;;;;;;;24.42;17.52;;;;;;;22.06;57.63;99279.16;3411409;29;20047;-74
2021/06/08 02:55:53;;;;;;;25.83;15.90;;;;;;;22.10;57.76;99291.09;3429458;28;20394;-74
2021/06/08 02:57:36;;;;;;;20.02;13.68;;;;;;;22.11;57.69;99281.84;3427179;28;20141;-74
2021/06/08 02:59:17;;;;;;;15.55;11.75;;;;;;;22.10;57.59;99282.13;3423907;28;20039;-72
2021/06/08 03:00:58;;;;;;;12.93;9.40;;;;;;;22.13;57.16;99285.09;3424793;28;20475;-74
2021/06/08 03:02:40;;;;;;;12.80;10.03;;;;;;;22.11;57.47;99281.84;3438644;28;20177;-75
2021/06/08 03:04:23;;;;;;;11.68;8.35;;;;;;;22.15;57.02;99282.91;3424919;28;20808;-74
2021/06/08 03:06:08;;;;;;;10.57;7.35;;;;;;;22.16;57.48;99281.00;3427275;28;20038;-74
2021/06/08 03:07:49;;;;;;;11.20;7.28;;;;;;;22.16;57.29;99281.81;3424898;28;20059;-73
2021/06/08 03:09:55;;;;;;;11.68;7.07;;;;;;;22.21;57.22;99281.81;3422963;28;20100;-74
2021/06/08 03:11:39;;;;;;;7.85;5.82;;;;;;;22.19;57.09;99292.13;3380826;29;20527;-72
2021/06/08 03:13:21;;;;;;;17.45;5.63;;;;;;;22.20;56.97;99295.66;3423081;28;20042;-73
2021/06/08 03:15:04;;;;;;;7.68;6.10;;;;;;;22.23;56.79;99294.28;3424515;28;20046;-74
2021/06/08 03:16:54;;;;;;;6.80;4.93;;;;;;;22.26;56.96;99291.03;3438394;28;20387;-73
2021/06/08 03:18:35;;;;;;;8.57;4.90;;;;;;;22.25;56.89;99292.09;3427058;28;20043;-73
2021/06/08 03:20:21;;;;;;;7.35;5.38;;;;;;;22.26;56.88;99293.75;3412321;28;20043;-73
2021/06/08 03:22:13;;;;;;;5.53;4.60;;;;;;;22.28;56.78;99286.09;3422258;28;20106;-73
2021/06/08 03:23:56;;;;;;;7.18;5.43;;;;;;;22.30;56.50;99286.63;3424192;28;20462;-74
2021/06/08 03:25:37;;;;;;;6.13;4.65;;;;;;;22.31;56.73;99286.38;3424047;28;20089;-75
2021/06/08 03:27:18;;;;;;;5.13;4.25;;;;;;;22.33;56.53;99286.06;3424214;28;20042;-74
2021/06/08 03:29:06;;;;;;;6.82;5.13;;;;;;;22.34;56.77;99282.28;3424796;28;20087;-73
2021/06/08 03:30:47;;;;;;;6.55;4.60;;;;;;;22.34;56.55;99282.28;3426551;28;20050;-74
2021/06/08 03:32:29;;;;;;;6.80;4.70;;;;;;;22.37;56.55;99284.41;3426657;28;20426;-73
2021/06/08 03:34:15;;;;;;;7.40;4.60;;;;;;;22.37;56.45;99274.38;3438019;28;20062;-74
2021/06/08 03:35:57;;;;;;;9.70;5.15;;;;;;;22.40;56.70;99278.41;3437337;28;20112;-73
2021/06/08 03:37:37;;;;;;;;;;;;;;;22.45;56.45;99280.28;3429796;28;20070;-74
2021/06/08 03:39:20;;;;;;;8.00;4.80;;;;;;;22.41;56.31;99274.63;3419471;28;19922;-73
2021/06/08 03:41:01;;;;;;;5.78;4.95;;;;;;;22.43;56.27;99283.28;3424399;28;20430;-72
2021/06/08 03:42:42;;;;;;;5.95;4.30;;;;;;;22.43;56.14;99280.56;3424107;28;20059;-72
2021/06/08 03:44:23;;;;;;;10.63;4.20;;;;;;;22.45;56.88;99274.88;3419825;28;20495;-74
2021/06/08 03:46:04;;;;;;;11.57;4.80;;;;;;;22.46;57.31;99274.59;3423433;28;20046;-74
2021/06/08 03:47:45;;;;;;;8.07;4.40;;;;;;;22.50;57.63;99281.06;3438348;28;20390;-75
2021/06/08 03:49:26;;;;;;;7.18;4.45;;;;;;;22.52;57.77;99281.59;3440203;28;20061;-75
2021/06/08 03:51:07;;;;;;;9.07;4.80;;;;;;;22.56;57.81;99282.66;3426843;28;20429;-76
2021/06/08 03:52:50;;;;;;;8.20;4.32;;;;;;;22.57;57.75;99283.47;3424604;28;20041;-74
2021/06/08 03:54:31;;;;;;;13.63;4.00;;;;;;;22.61;57.42;99288.06;3438559;28;20042;-75
2021/06/08 03:56:13;;;;;;;7.53;4.37;;;;;;;22.64;57.36;99292.13;3424786;28;20035;-72
2021/06/08 03:57:55;;;;;;;5.82;3.65;;;;;;;22.64;57.22;99286.69;3438628;28;20656;-74
2021/06/08 03:59:36;;;;;;;6.97;3.83;;;;;;;22.70;57.14;99298.31;3420587;28;20039;-72
2021/06/08 04:01:18;;;;;;;4.63;4.17;;;;;;;22.71;56.45;99291.78;3411018;29;20047;-71
2021/06/08 04:02:58;;;;;;;16.95;4.43;;;;;;;22.71;56.17;99289.06;3411349;29;20291;-70
2021/06/08 04:04:39;;;;;;;8.07;3.57;;;;;;;22.73;56.55;99292.31;3424970;28;20075;-71
2021/06/08 04:06:21;;;;;;;7.27;5.27;;;;;;;22.73;56.98;99286.88;3428807;28;20512;-74
2021/06/08 04:08:04;;;;;;;11.20;4.97;;;;;;;22.76;57.64;99291.72;3426414;28;20097;-72
2021/06/08 04:09:49;;;;;;;6.18;4.32;;;;;;;22.79;57.01;99291.16;3440755;28;20089;-72
2021/06/08 04:11:30;;;;;;;5.10;4.35;;;;;;;22.79;56.68;99291.16;3443919;28;20057;-69
2021/06/08 04:13:11;;;;;;;9.77;4.83;;;;;;;22.80;56.53;99292.78;3443653;28;20042;-70
2021/06/08 04:14:52;;;;;;;6.40;4.53;;;;;;;22.80;57.11;99292.78;3440892;28;20524;-72
2021/06/08 04:16:35;;;;;;;9.53;4.90;;;;;;;22.82;57.53;99290.56;3429512;28;20158;-71
2021/06/08 04:18:16;;;;;;;9.02;5.30;;;;;;;22.85;57.70;99295.47;3437119;28;20769;-72
2021/06/08 04:19:57;;;;;;;12.38;5.00;;;;;;;22.89;57.73;99296.50;3442783;28;20405;-73
2021/06/08 04:21:38;;;;;;;7.20;5.20;;;;;;;22.94;57.69;99298.38;3429612;28;20050;-71
2021/06/08 04:23:24;;;;;;;7.95;4.95;;;;;;;22.97;57.73;99304.06;3440836;28;20516;-73
2021/06/08 04:25:07;;;;;;;8.18;4.90;;;;;;;23.00;57.69;99302.69;3439899;28;20046;-73
2021/06/08 04:26:47;;;;;;;8.80;4.75;;;;;;;23.05;57.22;99305.34;3431168;28;20086;-72
2021/06/08 04:28:28;;;;;;;10.17;5.30;;;;;;;23.07;57.24;99301.25;3430279;28;20046;-72
2021/06/08 04:30:10;;;;;;;10.63;5.20;;;;;;;23.10;56.73;99308.03;3430248;28;20066;-72
2021/06/08 04:31:51;;;;;;;9.45;4.32;;;;;;;23.10;56.95;99297.16;3416251;28;20070;-71
2021/06/08 04:33:32;;;;;;;10.57;5.03;;;;;;;23.15;56.85;99299.81;3427357;28;20049;-72
2021/06/08 04:35:14;;;;;;;8.93;4.93;;;;;;;23.18;56.59;99303.88;3429397;28;20413;-71
2021/06/08 04:36:54;;;;;;;;;;;;;;;23.23;56.53;99306.53;3431823;28;20043;-71
2021/06/08 04:38:37;;;;;;;12.45;4.93;;;;;;;23.20;56.11;99312.56;3431637;28;19999;-71
2021/06/08 04:40:18;;;;;;;5.18;4.10;;;;;;;23.21;55.99;99308.75;3443291;28;20077;-74
2021/06/08 04:41:58;;;;;;;10.87;6.33;;;;;;;23.19;55.95;99306.31;3443460;28;20046;-74
2021/06/08 04:43:40;;;;;;;8.73;4.63;;;;;;;23.17;56.27;99310.41;3443254;28;20044;-72
2021/06/08 04:45:21;;;;;;;8.73;4.95;;;;;;;23.19;56.29;99313.66;3431875;28;20043;-73
2021/06/08 04:47:02;;;;;;;11.00;4.68;;;;;;;23.17;56.24;99308.50;3430017;28;20053;-72
2021/06/08 04:48:44;;;;;;;6.78;4.70;;;;;;;23.17;56.13;99311.22;3432910;28;20046;-73
2021/06/08 04:50:26;;;;;;;9.07;4.47;;;;;;;23.17;55.94;99310.41;3443326;28;20053;-73
2021/06/08 04:52:07;;;;;;;;;;;;;;;23.23;55.94;99318.25;3443812;28;20049;-71
2021/06/08 04:53:47;;;;;;;7.47;5.03;;;;;;;23.22;57.41;99318.53;3441924;28;19961;-70
2021/06/08 04:55:28;;;;;;;7.87;5.23;;;;;;;23.25;57.67;99317.94;3415493;29;20042;-71
2021/06/08 04:57:11;;;;;;;10.27;4.80;;;;;;;23.28;57.87;99314.63;3427170;28;20146;-71
2021/06/08 04:58:52;;;;;;;6.80;4.45;;;;;;;23.32;57.81;99315.69;3429907;28;20368;-70
2021/06/08 05:00:38;;;;;;;5.97;4.57;;;;;;;23.35;57.33;99323.28;3430155;28;20078;-71
2021/06/08 05:02:39;;;;;;;8.75;4.28;;;;;;;23.39;56.81;99320.78;3415365;29;20051;-70
2021/06/08 05:04:22;;;;;;;11.32;4.63;;;;;;;23.38;57.19;99322.69;3409649;28;20058;-70
2021/06/08 05:06:06;;;;;;;8.68;3.03;;;;;;;23.38;57.42;99316.44;3414947;28;20102;-73
2021/06/08 05:07:58;;;;;;;6.75;4.18;;;;;;;23.36;57.42;99315.91;3415092;28;20567;-71
2021/06/08 05:09:44;;;;;;;10.65;4.65;;;;;;;23.34;57.02;99318.94;3414170;28;20117;-73
2021/06/08 05:11:34;;;;;;;6.45;4.00;;;;;;;23.34;56.58;99320.84;3413610;29;20089;-70
2021/06/08 05:13:15;;;;;;;11.40;4.10;;;;;;;23.31;56.42;99319.50;3415221;29;20047;-71
2021/06/08 05:14:56;;;;;;;6.55;3.85;;;;;;;23.32;56.60;99326.56;3420255;28;20430;-70
2021/06/08 05:16:39;;;;;;;8.82;4.60;;;;;;;23.31;55.83;99319.50;3429394;28;20034;-73
2021/06/08 05:18:20;;;;;;;6.72;4.95;;;;;;;23.30;55.79;99329.56;3428487;28;20137;-70
2021/06/08 05:20:01;;;;;;;10.10;4.40;;;;;;;23.30;55.49;99320.59;3428284;28;20540;-71
2021/06/08 05:21:44;;;;;;;9.55;3.80;;;;;;;23.29;56.16;99325.25;3429076;28;20482;-69
2021/06/08 05:23:25;;;;;;;16.63;4.63;;;;;;;23.29;55.92;99327.16;3429188;28;20072;-70
2021/06/08 05:25:08;;;;;;;7.03;4.60;;;;;;;23.28;55.27;99326.34;3428446;28;20122;-70
2021/06/08 05:26:49;;;;;;;10.10;5.82;;;;;;;23.26;55.29;99322.31;3420050;28;20298;-68
2021/06/08 05:28:33;;;;;;;8.15;4.80;;;;;;;23.26;55.53;99322.31;3425880;28;20046;-70
2021/06/08 05:30:14;;;;;;;6.13;4.78;;;;;;;23.23;55.61;99312.81;3428224;28;20383;-69
2021/06/08 05:31:56;;;;;;;7.32;5.10;;;;;;;23.26;55.37;99325.03;3427851;28;20513;-70
2021/06/08 05:33:37;;;;;;;;;;;;;;;23.29;55.26;99327.16;3428036;28;20042;-70
2021/06/08 05:35:28;;;;;;;5.55;4.25;;;;;;;23.21;55.42;99322.34;3428702;28;20293;-69
2021/06/08 05:37:10;;;;;;;8.05;4.45;;;;;;;23.18;55.50;99325.63;3429241;28;20043;-69
2021/06/08 05:38:52;;;;;;;;;;;;;;;23.21;55.32;99325.06;3427143;28;20088;-69
2021/06/08 05:40:35;;;;;;;4.90;4.03;;;;;;;23.13;54.87;99322.94;3424844;28;19922;-70
2021/06/08 05:42:20;;;;;;;6.97;4.68;;;;;;;23.03;54.56;99313.81;3423461;28;20302;-69
2021/06/08 05:44:01;;;;;;;7.53;4.25;;;;;;;22.99;54.47;99326.34;3415821;28;20042;-69
2021/06/08 05:45:41;;;;;;;5.83;4.10;;;;;;;22.95;54.56;99324.44;3427789;28;20046;-71
2021/06/08 05:47:22;;;;;;;8.87;4.20;;;;;;;22.92;54.65;99323.09;3426876;28;20097;-72
2021/06/08 05:49:07;;;;;;;6.47;4.17;;;;;;;22.86;54.62;99319.63;3416702;28;20060;-69
2021/06/08 05:50:49;;;;;;;7.70;4.20;;;;;;;22.82;54.60;99324.03;3418464;28;20414;-71
2021/06/08 05:52:31;;;;;;;7.97;3.67;;;;;;;22.77;54.72;99326.78;3428562;28;20046;-71
2021/06/08 05:54:11;;;;;;;5.88;4.03;;;;;;;22.67;55.03;99315.19;3418514;28;20409;-70
2021/06/08 05:55:55;;;;;;;8.73;4.90;;;;;;;22.59;55.20;99320.13;3411868;29;20039;-70
2021/06/08 05:57:37;;;;;;;10.18;4.60;;;;;;;22.52;55.65;99326.97;3424083;28;20105;-70
2021/06/08 05:59:18;;;;;;;9.32;5.00;;;;;;;22.44;55.59;99325.66;3419362;28;20039;-70
2021/06/08 06:01:01;;;;;;;5.63;4.70;;;;;;;22.38;56.04;99326.75;3425808;28;20514;-70
2021/06/08 06:02:42;;;;;;;8.52;4.88;;;;;;;22.30;56.15;99325.44;3432217;28;20535;-69
2021/06/08 06:04:24;;;;;;;6.53;5.30;;;;;;;22.28;56.36;99329.53;3440615;28;20048;-69
2021/06/08 06:06:06;;;;;;;6.50;4.40;;;;;;;22.23;56.52;99329.56;3431560;28;20590;-70
2021/06/08 06:07:49;;;;;;;10.13;4.85;;;;;;;22.19;56.37;99329.34;3426389;28;20511;-70
2021/06/08 06:09:32;;;;;;;;;;;;;;;22.24;56.44;99328.50;3426722;28;20030;-70
2021/06/08 06:11:14;;;;;;;4.47;4.03;;;;;;;22.11;56.68;99322.56;3422898;28;19922;-69
2021/06/08 06:12:56;;;;;;;5.25;3.55;;;;;;;22.06;56.61;99325.28;3422216;28;20174;-69
2021/06/08 06:14:38;;;;;;;6.40;3.55;;;;;;;22.03;56.86;99327.78;3426229;28;20045;-70
2021/06/08 06:16:20;;;;;;;5.90;3.90;;;;;;;22.00;56.95;99327.22;3422524;28;20081;-69
2021/06/08 06:18:01;;;;;;;5.00;3.55;;;;;;;21.97;57.51;99329.69;3424116;28;20081;-70
2021/06/08 06:19:44;;;;;;;6.57;4.50;;;;;;;21.92;57.78;99322.38;3423941;28;20034;-70
2021/06/08 06:21:25;;;;;;;7.20;4.55;;;;;;;21.90;57.78;99329.97;3416654;28;20740;-68
2021/06/08 06:23:09;;;;;;;7.25;4.40;;;;;;;21.86;57.92;99328.09;3426751;28;20474;-69
2021/06/08 06:24:51;;;;;;;8.25;4.78;;;;;;;21.83;57.85;99328.66;3426718;28;20174;-70
2021/06/08 06:26:35;;;;;;;6.75;4.07;;;;;;;21.79;57.93;99328.41;3425976;28;20039;-70
2021/06/08 06:28:17;;;;;;;13.35;5.03;;;;;;;21.75;58.80;99333.56;3427018;28;20038;-72
2021/06/08 06:30:01;;;;;;;7.82;5.38;;;;;;;21.75;58.76;99328.13;3424818;28;20085;-70
2021/06/08 06:31:47;;;;;;;7.75;4.80;;;;;;;21.76;59.36;99323.53;3427081;28;20174;-69
2021/06/08 06:33:28;;;;;;;7.80;4.35;;;;;;;21.74;59.56;99326.53;3425247;28;20047;-70
2021/06/08 06:35:10;;;;;;;33.83;25.27;;;;;;;21.73;59.94;99324.88;3425960;28;20049;-69
2021/06/08 06:36:58;;;;;;;44.80;34.05;;;;;;;21.74;60.38;99326.53;3427084;28;20070;-71
2021/06/08 06:38:43;;;;;;;26.33;17.77;;;;;;;21.73;60.05;99330.31;3426147;28;20053;-69
2021/06/08 06:40:28;;;;;;;16.50;10.38;;;;;;;21.71;60.31;99328.97;3424652;28;20043;-70
2021/06/08 06:42:13;;;;;;;9.80;8.52;;;;;;;21.69;60.38;99329.25;3422593;28;20039;-71
2021/06/08 06:43:59;;;;;;;12.95;7.78;;;;;;;21.68;60.96;99330.31;3423028;28;20117;-69
2021/06/08 06:45:40;;;;;;;10.82;6.68;;;;;;;21.67;61.17;99331.44;3423947;28;20070;-70
2021/06/08 06:47:21;;;;;;;12.43;7.35;;;;;;;21.64;61.70;99326.56;3426883;28;20035;-71
2021/06/08 06:49:03;;;;;;;8.93;6.07;;;;;;;21.68;61.37;99322.19;3422763;28;20526;-69
2021/06/08 06:50:45;;;;;;;10.07;6.47;;;;;;;21.68;61.74;99333.03;3426195;28;20061;-69
2021/06/08 06:52:26;;;;;;;11.95;6.57;;;;;;;21.71;62.19;99329.81;3424682;28;20070;-70
2021/06/08 06:54:08;;;;;;;16.03;8.10;;;;;;;21.75;61.79;99325.44;3423815;28;20045;-71
2021/06/08 06:55:49;;;;;;;;;;;;;;;21.85;61.18;99334.63;3427414;28;20484;-70
2021/06/08 06:57:30;;;;;;;12.48;7.32;;;;;;;21.83;61.36;99339.50;3422664;28;19926;-70
2021/06/08 06:59:11;;;;;;;17.27;7.87;;;;;;;21.85;61.27;99337.34;3422813;28;20057;-69
2021/06/08 07:00:52;;;;;;;12.05;6.88;;;;;;;21.87;60.99;99332.47;3427357;28;20042;-70
2021/06/08 07:02:35;;;;;;;14.40;7.05;;;;;;;21.91;60.90;99333.50;3423222;28;20133;-69
2021/06/08 07:04:31;;;;;;;13.80;7.47;;;;;;;21.96;60.98;99341.63;3421724;28;20035;-71
2021/06/08 07:06:15;;;;;;;16.85;7.78;;;;;;;22.00;61.25;99338.09;3425533;28;20612;-71
2021/06/08 07:07:57;;;;;;;12.25;7.22;;;;;;;22.05;61.36;99331.81;3422419;28;20156;-69
2021/06/08 07:09:37;;;;;;;;;;;;;;;22.18;60.77;99333.94;3427405;28;20038;-69
2021/06/08 07:11:21;;;;;;;11.07;7.50;;;;;;;22.21;60.66;99332.59;3422474;28;19992;-70
2021/06/08 07:13:06;;;;;;;11.98;7.53;;;;;;;22.29;60.78;99342.03;3424947;28;20031;-72
2021/06/08 07:14:50;;;;;;;14.82;7.75;;;;;;;22.37;60.73;99338.72;3421932;28;20054;-70
2021/06/08 07:16:33;;;;;;;12.90;7.88;;;;;;;22.47;60.61;99329.72;3426023;28;20418;-71
2021/06/08 07:18:15;;;;;;;9.88;7.35;;;;;;;22.57;60.66;99330.44;3420910;28;20492;-70
2021/06/08 07:19:57;;;;;;;12.48;7.82;;;;;;;22.71;60.58;99337.97;3419993;28;20042;-70
2021/06/08 07:21:37;;;;;;;13.55;8.15;;;;;;;22.82;60.29;99334.88;3423665;28;20058;-70
2021/06/08 07:23:19;;;;;;;13.55;8.73;;;;;;;22.94;60.38;99336.41;3421850;28;20043;-70
2021/06/08 07:25:03;;;;;;;20.20;7.97;;;;;;;23.02;60.27;99342.06;3426753;28;20121;-70
2021/06/08 07:26:47;;;;;;;18.95;8.10;;;;;;;23.15;59.90;99345.22;3426767;28;20047;-70
2021/06/08 07:28:31;;;;;;;14.77;8.63;;;;;;;23.32;60.07;99337.47;3427006;28;20046;-70
2021/06/08 07:30:14;;;;;;;17.58;6.82;;;;;;;23.53;59.84;99332.59;3425436;28;20046;-71
2021/06/08 07:32:07;;;;;;;19.65;8.30;;;;;;;23.80;59.41;99331.22;3425332;28;20047;-70
2021/06/08 07:34:03;;;;;;;18.70;8.93;;;;;;;23.98;59.35;99337.81;3424105;28;20510;-69
2021/06/08 07:36:18;;;;;;;28.95;14.57;;;;;;;24.12;58.94;99339.53;3430913;28;20779;-72
2021/06/08 07:38:07;;;;;;;20.83;12.35;;;;;;;24.18;58.63;99348.44;3422964;28;20066;-70
2021/06/08 07:40:19;;;;;;;17.80;10.60;;;;;;;24.28;58.36;99342.84;3430103;28;20044;-71
2021/06/08 07:42:17;;;;;;;11.75;8.13;;;;;;;24.28;57.94;99348.31;3427124;28;20109;-70
2021/06/08 07:44:03;;;;;;;12.23;7.97;;;;;;;24.25;57.94;99350.81;3420551;28;20083;-71
2021/06/08 07:45:48;;;;;;;17.08;8.10;;;;;;;24.22;57.82;99349.50;3424737;28;20047;-71
2021/06/08 07:47:31;;;;;;;14.38;6.75;;;;;;;24.24;57.83;99346.44;3424412;28;20509;-71
2021/06/08 07:49:14;;;;;;;12.80;7.80;;;;;;;24.28;57.82;99347.50;3427808;28;20577;-72
2021/06/08 07:50:56;;;;;;;11.73;8.02;;;;;;;24.31;57.50;99352.34;3428500;28;20027;-71
2021/06/08 07:52:38;;;;;;;10.35;6.18;;;;;;;24.35;57.31;99356.94;3429494;28;20046;-70
2021/06/08 07:54:21;;;;;;;14.57;6.15;;;;;;;24.40;56.84;99360.69;3426197;28;20046;-70
2021/06/08 07:56:03;;;;;;;11.55;6.00;;;;;;;24.44;56.53;99350.81;3428367;28;20078;-70
2021/06/08 07:57:46;;;;;;;9.77;6.03;;;;;;;24.50;56.05;99349.66;3429866;28;20545;-71
2021/06/08 07:59:27;;;;;;;12.60;6.40;;;;;;;24.67;56.20;99349.94;3429185;28;20050;-71
2021/06/08 08:01:08;;;;;;;4.72;3.90;;;;;;;25.01;56.00;99351.59;3429216;28;20050;-72
2021/06/08 08:02:52;;;;;;;4.97;4.40;;;;;;;25.38;55.64;99352.63;3420877;28;21317;-71
2021/06/08 08:04:38;;;;;;;8.27;5.40;;;;;;;25.78;54.57;99351.00;3415988;28;20042;-70
2021/06/08 08:06:19;;;;;;;13.43;5.50;;;;;;;26.18;54.21;99347.78;3426561;28;20043;-71